Time;durP1;ratioP1;P1;durP2;ratioP2;P2;SDS_P1;SDS_P2;PMS_P1;PMS_P2;Temp;Humidity;BMP_temperature;BMP_pressure;BME280_temperature;BME280_humidity;BME280_pressure;Samples;Min_cycle;Max_cycle;Signal;HPM_P1;HPM_P2
2022/08/14 00:02:27;;;;;;;11.38;7.42;;;;;;;22.98;64.16;100023.73;1687327;84;21042;-72
2022/08/14 00:04:58;;;;;;;12.18;7.62;;;;;;;22.98;63.96;100021.50;1685331;84;21475;-72
2022/08/14 00:07:27;;;;;;;9.50;6.87;;;;;;;22.98;64.01;100025.69;1684173;85;21051;-71
2022/08/14 00:09:56;;;;;;;13.83;6.50;;;;;;;22.98;64.00;100024.30;1688425;84;21055;-73
2022/08/14 00:12:27;;;;;;;13.62;6.95;;;;;;;23.01;63.62;100020.92;1686778;84;21114;-72
2022/08/14 00:14:58;;;;;;;10.28;6.60;;;;;;;23.00;63.19;100024.84;1686390;85;21011;-74
2022/08/14 00:17:28;;;;;;;14.87;7.12;;;;;;;23.01;62.17;100013.94;1689060;85;21024;-72
2022/08/14 00:19:59;;;;;;;10.40;6.95;;;;;;;23.02;62.11;100019.80;1688949;84;21537;-72
2022/08/14 00:22:29;;;;;;;10.08;6.90;;;;;;;23.03;61.99;100022.30;1691724;84;21054;-72
2022/08/14 00:25:00;;;;;;;10.82;6.90;;;;;;;23.02;62.13;100017.84;1687380;84;21086;-73
2022/08/14 00:27:29;;;;;;;10.43;6.70;;;;;;;23.02;61.88;100030.41;1674658;84;21063;-72
2022/08/14 00:30:00;;;;;;;12.35;6.87;;;;;;;23.02;61.73;100020.63;1693359;84;21062;-72
2022/08/14 00:32:32;;;;;;;9.70;6.78;;;;;;;23.02;60.88;100026.22;1669510;85;21447;-70
2022/08/14 00:35:04;;;;;;;10.35;6.80;;;;;;;23.02;61.24;100027.62;1686794;84;21074;-73
2022/08/14 00:37:38;;;;;;;10.53;6.67;;;;;;;23.02;61.02;100019.23;1668745;85;21031;-73
2022/08/14 00:40:11;;;;;;;13.10;6.65;;;;;;;23.03;60.92;100020.07;1675258;85;21027;-71
2022/08/14 00:42:42;;;;;;;12.47;7.15;;;;;;;23.04;60.25;100030.95;1663134;86;21067;-73
2022/08/14 00:45:14;;;;;;;9.15;7.10;;;;;;;23.05;60.76;100029.00;1688555;84;21609;-72
2022/08/14 00:47:45;;;;;;;11.43;7.40;;;;;;;23.03;60.93;100025.66;1679033;85;21060;-72
2022/08/14 00:50:18;;;;;;;12.50;6.50;;;;;;;23.02;60.97;100017.00;1688034;84;21068;-71
2022/08/14 00:52:51;;;;;;;9.35;7.30;;;;;;;23.00;61.00;100021.48;1680850;85;21095;-71
2022/08/14 00:55:20;;;;;;;14.00;7.58;;;;;;;22.99;61.08;100009.20;1689228;85;21019;-72
2022/08/14 00:58:29;;;;;;;11.70;6.67;;;;;;;22.96;61.02;100018.99;1689242;84;21028;-72
2022/08/14 01:00:19;;;;;;;9.65;6.78;;;;;;;22.93;60.80;100019.57;1663485;85;21047;-71
2022/08/14 01:02:52;;;;;;;12.07;6.85;;;;;;;22.91;60.88;100014.83;1666638;85;21296;-72
2022/08/14 01:05:25;;;;;;;12.58;6.72;;;;;;;22.90;60.79;100015.12;1687843;84;21082;-72
2022/08/14 01:07:59;;;;;;;12.13;7.10;;;;;;;22.89;60.78;100002.28;1688272;84;21068;-72
2022/08/14 01:13:22;;;;;;;12.13;6.80;;;;;;;22.88;60.71;100008.98;1689274;85;21058;-71
2022/08/14 01:15:55;;;;;;;11.08;6.62;;;;;;;22.87;60.87;100010.95;1682847;85;21111;-72
2022/08/14 01:21:24;;;;;;;11.12;6.85;;;;;;;22.84;60.86;100022.70;1674901;84;21062;-71
2022/08/14 01:23:55;;;;;;;11.30;6.90;;;;;;;22.82;61.13;100013.77;1666167;85;21007;-73
2022/08/14 01:26:24;;;;;;;9.88;7.40;;;;;;;22.80;60.98;100020.20;1689071;84;21086;-71
2022/08/14 01:28:58;;;;;;;8.63;6.47;;;;;;;22.79;60.90;100017.11;1671054;84;21027;-71
2022/08/14 01:31:30;;;;;;;13.58;6.97;;;;;;;22.79;61.28;100014.31;1686439;84;21099;-72
2022/08/14 01:34:02;;;;;;;9.58;6.40;;;;;;;22.78;61.41;100004.27;1666516;85;21071;-72
2022/08/14 01:36:37;;;;;;;8.18;6.20;;;;;;;22.75;61.77;100014.59;1690719;84;21047;-73
2022/08/14 01:39:14;;;;;;;10.98;6.70;;;;;;;22.74;61.52;100021.30;1669999;85;21072;-71
2022/08/14 01:42:05;;;;;;;11.83;6.78;;;;;;;22.73;61.59;100009.84;1669662;85;21056;-73
2022/08/14 01:44:25;;;;;;;10.08;6.17;;;;;;;22.72;61.59;100006.22;1661435;86;21090;-70
2022/08/14 01:47:03;;;;;;;12.78;7.28;;;;;;;22.72;61.60;100009.58;1652449;86;21047;-72
2022/08/14 01:49:35;;;;;;;9.68;6.72;;;;;;;22.72;61.51;100012.37;1689225;85;21083;-72
2022/08/14 01:52:07;;;;;;;11.93;7.00;;;;;;;22.70;61.67;100016.84;1678028;84;21020;-73
2022/08/14 01:54:39;;;;;;;10.58;6.78;;;;;;;22.69;61.64;100014.34;1688126;85;21032;-72
2022/08/14 01:57:10;;;;;;;10.48;6.75;;;;;;;22.68;61.72;100017.69;1678989;85;21011;-71
2022/08/14 01:59:42;;;;;;;12.98;7.28;;;;;;;22.66;61.85;100014.91;1687168;84;21073;-72
2022/08/14 02:02:13;;;;;;;8.40;6.62;;;;;;;22.64;61.88;100018.55;1674912;85;21035;-72
2022/08/14 02:04:43;;;;;;;9.85;6.60;;;;;;;22.62;62.10;100015.21;1680118;84;21083;-72
2022/08/14 02:07:14;;;;;;;10.55;6.55;;;;;;;22.60;62.25;100015.50;1666735;84;21024;-71
2022/08/14 02:09:43;;;;;;;10.48;6.42;;;;;;;22.60;62.34;100022.48;1685567;85;21070;-72
2022/08/14 02:12:15;;;;;;;9.63;6.75;;;;;;;22.59;62.57;100015.22;1684302;85;21455;-71
2022/08/14 02:14:46;;;;;;;8.85;7.00;;;;;;;22.58;62.46;100023.89;1681514;85;21601;-71
2022/08/14 02:17:21;;;;;;;8.80;6.78;;;;;;;22.57;62.73;100023.61;1666944;85;21071;-72
2022/08/14 02:19:50;;;;;;;9.23;6.83;;;;;;;22.57;62.94;100019.42;1684610;85;21059;-74
2022/08/14 02:22:20;;;;;;;11.53;7.22;;;;;;;22.54;62.83;100015.25;1681334;85;21081;-71
2022/08/14 02:24:51;;;;;;;13.25;6.75;;;;;;;22.51;62.90;100011.63;1682824;85;21488;-73
2022/08/14 02:27:20;;;;;;;10.28;6.72;;;;;;;22.46;63.01;100007.47;1675001;85;21094;-71
2022/08/14 02:29:55;;;;;;;10.53;6.60;;;;;;;22.43;63.13;100019.20;1681263;85;21087;-71
2022/08/14 02:32:23;;;;;;;9.08;6.67;;;;;;;22.40;63.17;100016.98;1693000;84;21530;-72
2022/08/14 02:34:54;;;;;;;8.50;6.15;;;;;;;22.38;63.42;100018.67;1687756;84;21110;-72
2022/08/14 02:37:23;;;;;;;8.78;6.55;;;;;;;22.35;63.62;100022.03;1697073;84;21043;-72
2022/08/14 02:39:54;;;;;;;9.55;6.90;;;;;;;22.31;63.34;100026.52;1687571;85;21011;-71
2022/08/14 02:42:24;;;;;;;12.35;6.90;;;;;;;22.28;63.37;100027.64;1676665;84;21062;-71
2022/08/14 02:44:55;;;;;;;11.83;6.70;;;;;;;22.26;63.45;100015.92;1689064;84;21104;-72
2022/08/14 02:47:25;;;;;;;10.30;6.60;;;;;;;22.24;63.72;100025.98;1688526;84;20999;-71
2022/08/14 02:49:54;;;;;;;9.93;6.12;;;;;;;22.21;63.50;100022.36;1687515;84;21035;-73
2022/08/14 02:52:26;;;;;;;9.80;6.53;;;;;;;22.18;63.49;100018.73;1684629;85;21036;-72
2022/08/14 02:54:57;;;;;;;11.57;6.40;;;;;;;22.18;63.72;100018.73;1687520;85;21071;-70
2022/08/14 02:57:26;;;;;;;8.98;6.30;;;;;;;22.16;63.75;100012.61;1690453;85;21011;-71
2022/08/14 02:59:57;;;;;;;9.05;6.65;;;;;;;22.17;63.59;100023.21;1692146;84;21070;-71
2022/08/14 03:02:30;;;;;;;11.90;7.00;;;;;;;22.15;63.44;100029.07;1672422;84;21051;-70
2022/08/14 03:04:59;;;;;;;9.63;6.47;;;;;;;22.13;63.55;100026.56;1693678;84;21043;-72
2022/08/14 03:07:28;;;;;;;9.98;7.00;;;;;;;22.11;63.49;100024.62;1671918;85;21055;-72
2022/08/14 03:10:00;;;;;;;9.68;6.35;;;;;;;22.08;63.55;100027.11;1694929;84;21564;-71
2022/08/14 03:12:32;;;;;;;9.95;6.10;;;;;;;22.05;63.71;100020.14;1697415;84;21078;-71
2022/08/14 03:15:12;;;;;;;11.18;6.50;;;;;;;22.04;63.81;100027.39;1701191;84;21082;-71
2022/08/14 03:17:41;;;;;;;8.95;6.40;;;;;;;22.00;63.89;100017.89;1663494;84;21125;-72
2022/08/14 03:20:12;;;;;;;10.23;5.95;;;;;;;21.99;63.96;100021.80;1697913;84;21042;-71
2022/08/14 03:22:41;;;;;;;8.85;6.62;;;;;;;21.98;64.17;100017.33;1697176;84;21086;-71
2022/08/14 03:25:11;;;;;;;9.00;6.25;;;;;;;21.97;64.42;100015.66;1701041;84;21070;-72
2022/08/14 03:27:41;;;;;;;9.55;6.78;;;;;;;21.96;64.24;100018.17;1680342;84;21030;-71
2022/08/14 03:30:13;;;;;;;10.40;6.70;;;;;;;21.97;64.10;100025.42;1690746;84;21035;-72
2022/08/14 03:32:43;;;;;;;9.40;6.33;;;;;;;21.95;63.88;100025.71;1696765;84;21015;-71
2022/08/14 03:35:14;;;;;;;10.90;6.72;;;;;;;21.94;63.78;100023.20;1701517;84;21050;-71
2022/08/14 03:37:44;;;;;;;9.18;6.40;;;;;;;21.93;63.86;100027.11;1699415;84;21455;-70
2022/08/14 03:40:15;;;;;;;9.80;6.65;;;;;;;21.91;63.90;100021.81;1695196;84;21137;-72
2022/08/14 03:42:46;;;;;;;9.23;6.28;;;;;;;21.92;64.02;100021.25;1695597;84;21031;-70
2022/08/14 03:45:15;;;;;;;10.78;6.58;;;;;;;21.96;63.95;100023.75;1696067;84;21038;-72
2022/08/14 03:47:46;;;;;;;9.28;6.33;;;;;;;21.95;63.83;100020.13;1674945;84;21003;-71
2022/08/14 03:50:17;;;;;;;9.18;6.60;;;;;;;21.96;63.91;100022.36;1668146;84;21050;-70
2022/08/14 03:52:48;;;;;;;9.43;6.85;;;;;;;21.97;63.70;100024.87;1662663;86;21050;-71
2022/08/14 03:55:19;;;;;;;9.78;6.70;;;;;;;21.96;63.76;100023.20;1745254;82;21067;-72
2022/08/14 03:57:48;;;;;;;8.68;5.92;;;;;;;21.95;63.69;100022.92;1722062;82;21027;-72
2022/08/14 04:00:18;;;;;;;7.83;6.12;;;;;;;21.98;63.75;100032.12;1672475;84;21102;-71
2022/08/14 04:02:49;;;;;;;12.10;6.58;;;;;;;21.99;63.77;100028.77;1679677;83;21067;-71
2022/08/14 04:05:22;;;;;;;8.93;6.50;;;;;;;22.00;63.70;100027.66;1684516;84;21071;-72
2022/08/14 04:07:51;;;;;;;10.05;6.40;;;;;;;22.00;63.79;100022.08;1669470;85;21192;-72
2022/08/14 04:10:22;;;;;;;9.10;6.35;;;;;;;22.01;63.78;100019.00;1743719;82;21080;-72
2022/08/14 04:12:58;;;;;;;8.83;6.20;;;;;;;22.01;63.38;100013.98;1672295;85;21045;-71
2022/08/14 04:15:26;;;;;;;9.68;6.58;;;;;;;21.99;63.44;100010.64;1682019;85;21083;-72
2022/08/14 04:17:55;;;;;;;9.45;6.53;;;;;;;21.98;63.77;100015.94;1693868;84;21452;-73
2022/08/14 04:20:25;;;;;;;7.95;6.08;;;;;;;21.99;63.68;100014.82;1682836;85;21023;-72
2022/08/14 04:22:54;;;;;;;11.00;5.97;;;;;;;22.01;63.65;100005.61;1673470;85;21044;-72
2022/08/14 04:25:23;;;;;;;12.00;6.35;;;;;;;22.01;63.81;100007.00;1663152;85;21557;-71
2022/08/14 04:27:53;;;;;;;10.23;6.58;;;;;;;22.03;63.77;100004.80;1685177;84;21221;-70
2022/08/14 04:30:27;;;;;;;13.55;6.70;;;;;;;22.03;63.58;100002.84;1685502;84;21455;-72
2022/08/14 04:32:57;;;;;;;10.70;6.72;;;;;;;22.04;63.84;100014.84;1667670;84;21039;-71
2022/08/14 04:35:28;;;;;;;12.13;6.60;;;;;;;22.01;63.78;100008.40;1685269;84;21166;-72
2022/08/14 04:43:39;;;;;;;9.28;6.12;;;;;;;22.02;63.76;100001.70;1685809;84;21541;-72
2022/08/14 04:46:14;;;;;;;8.40;6.12;;;;;;;22.04;63.75;100002.28;1684239;85;21055;-72
2022/08/14 04:48:47;;;;;;;7.42;5.90;;;;;;;22.06;63.73;100009.25;1680263;85;21525;-72
2022/08/14 04:51:25;;;;;;;9.63;6.62;;;;;;;22.06;63.70;100005.07;1686636;84;21047;-72
2022/08/14 04:53:56;;;;;;;10.68;7.03;;;;;;;22.08;63.74;100010.37;1684799;84;21007;-72
2022/08/14 04:56:25;;;;;;;14.28;8.85;;;;;;;22.10;63.81;100001.15;1687939;84;21411;-72
2022/08/14 04:58:59;;;;;;;8.63;7.33;;;;;;;22.13;63.98;100007.59;1688824;84;21288;-71
2022/08/14 05:01:30;;;;;;;9.95;6.37;;;;;;;22.14;64.56;100006.47;1684228;84;21075;-71
2022/08/14 05:04:01;;;;;;;13.40;6.97;;;;;;;22.19;64.37;100012.59;1682797;85;21091;-71
2022/08/14 05:06:30;;;;;;;9.78;6.30;;;;;;;22.22;64.59;100008.67;1683946;85;21051;-73
2022/08/14 05:09:01;;;;;;;9.90;6.20;;;;;;;22.23;64.46;100007.56;1684317;84;21090;-71
2022/08/14 05:11:32;;;;;;;10.45;6.25;;;;;;;22.24;64.10;100016.20;1692819;84;21074;-72
2022/08/14 05:14:04;;;;;;;11.30;6.78;;;;;;;22.26;63.96;100019.55;1690707;85;21081;-71
2022/08/14 05:16:35;;;;;;;7.20;6.25;;;;;;;22.29;63.84;100013.40;1693249;84;21054;-72
2022/08/14 05:19:09;;;;;;;10.53;6.50;;;;;;;22.31;63.61;100008.37;1691554;84;21054;-70
2022/08/14 05:21:40;;;;;;;8.08;6.37;;;;;;;22.35;63.64;100010.86;1691015;84;21070;-72
2022/08/14 05:24:11;;;;;;;12.58;6.62;;;;;;;22.36;63.50;100006.12;1690659;84;21145;-73
2022/08/14 05:26:45;;;;;;;8.43;6.00;;;;;;;22.40;63.41;100002.47;1690306;85;21610;-72
2022/08/14 05:29:15;;;;;;;7.78;6.30;;;;;;;22.43;63.13;100003.85;1690987;85;21082;-71
2022/08/14 05:31:45;;;;;;;12.25;6.72;;;;;;;22.46;63.29;100008.30;1694231;84;21007;-72
2022/08/14 05:34:13;;;;;;;11.75;6.55;;;;;;;22.51;63.38;100002.42;1690874;85;21110;-72
2022/08/14 05:36:44;;;;;;;8.95;6.70;;;;;;;22.57;63.09;100001.27;1691015;85;21532;-72
2022/08/14 05:39:14;;;;;;;10.43;6.58;;;;;;;22.61;62.78;100001.81;1686908;85;21518;-72
2022/08/14 05:41:43;;;;;;;12.53;6.72;;;;;;;22.64;62.69;100001.80;1691037;84;21064;-71
2022/08/14 05:44:15;;;;;;;7.53;6.25;;;;;;;22.66;62.92;100004.58;1692738;84;21034;-71
2022/08/14 05:46:45;;;;;;;8.78;6.40;;;;;;;22.72;62.86;100009.58;1691173;84;21138;-71
2022/08/14 05:49:14;;;;;;;9.85;7.30;;;;;;;22.77;62.75;100006.22;1690985;84;21201;-71
2022/08/14 05:51:45;;;;;;;7.85;6.47;;;;;;;22.81;62.69;100007.08;1691012;84;21066;-71
2022/08/14 05:54:15;;;;;;;8.23;6.83;;;;;;;22.83;62.24;100008.46;1691366;84;21425;-71
2022/08/14 05:56:46;;;;;;;12.47;8.95;;;;;;;22.86;62.44;100000.89;1691419;84;21070;-71
2022/08/14 05:59:16;;;;;;;12.47;8.70;;;;;;;22.88;62.32;99999.21;1685763;84;21513;-72
2022/08/14 06:01:47;;;;;;;9.83;7.10;;;;;;;22.89;62.20;99997.53;1686782;85;21067;-72
2022/08/14 06:04:18;;;;;;;8.33;6.60;;;;;;;22.89;62.22;100003.11;1678292;85;21039;-72
2022/08/14 06:06:47;;;;;;;9.85;6.55;;;;;;;22.91;62.10;100002.27;1669776;85;21043;-71
2022/08/14 06:09:17;;;;;;;8.33;6.30;;;;;;;22.94;62.24;100000.84;1663274;86;21121;-71
2022/08/14 06:11:46;;;;;;;11.80;6.50;;;;;;;22.98;62.26;99997.75;1689651;84;21087;-72
2022/08/14 06:14:19;;;;;;;11.30;6.87;;;;;;;23.03;62.04;100001.34;1689099;84;21542;-72
2022/08/14 06:16:50;;;;;;;14.38;7.00;;;;;;;23.08;62.11;99995.72;1689302;84;21063;-72
2022/08/14 06:19:21;;;;;;;12.45;7.25;;;;;;;23.15;62.19;99988.97;1689192;85;21131;-71
2022/08/14 06:21:51;;;;;;;9.90;7.12;;;;;;;23.22;61.98;99989.47;1681716;84;21509;-72
2022/08/14 06:24:22;;;;;;;10.48;6.65;;;;;;;23.27;61.67;99993.06;1678454;85;21520;-71
2022/08/14 06:26:53;;;;;;;7.72;6.72;;;;;;;23.32;61.46;99990.22;1689413;84;21484;-73
2022/08/14 06:29:24;;;;;;;10.48;7.05;;;;;;;23.33;61.22;99995.25;1688196;84;21008;-71
2022/08/14 06:31:56;;;;;;;9.23;6.70;;;;;;;23.33;61.39;99984.06;1689034;84;21102;-73
2022/08/14 06:34:27;;;;;;;10.08;7.40;;;;;;;23.35;61.37;99992.44;1687892;84;21035;-72
2022/08/14 06:36:58;;;;;;;11.55;7.42;;;;;;;23.37;61.36;99993.54;1688024;85;21027;-71
2022/08/14 06:39:27;;;;;;;10.25;6.45;;;;;;;23.39;61.22;99991.28;1683943;85;21039;-71
2022/08/14 06:41:58;;;;;;;8.88;6.17;;;;;;;23.43;61.60;99991.56;1679866;85;21063;-71
2022/08/14 06:44:28;;;;;;;12.25;7.20;;;;;;;23.47;61.56;99989.29;1689147;85;21023;-72
2022/08/14 06:46:58;;;;;;;10.60;6.55;;;;;;;23.49;61.37;99997.39;1681782;84;21062;-72
2022/08/14 06:49:28;;;;;;;8.90;6.78;;;;;;;23.54;61.62;99998.17;1682477;84;21055;-72
2022/08/14 06:51:59;;;;;;;9.85;7.22;;;;;;;23.61;61.32;99999.27;1682718;85;21052;-72
2022/08/14 06:54:30;;;;;;;7.87;7.00;;;;;;;23.73;61.27;100004.47;1683185;85;21031;-72
2022/08/14 06:57:00;;;;;;;10.75;7.05;;;;;;;23.82;60.98;99999.91;1689200;85;21063;-72
2022/08/14 06:59:29;;;;;;;15.32;7.37;;;;;;;23.89;60.93;99993.39;1685107;84;21032;-71
2022/08/14 07:07:39;;;;;;;10.65;7.10;;;;;;;24.15;60.23;100006.01;1687296;85;21062;-71
2022/08/14 07:10:08;;;;;;;9.53;6.97;;;;;;;24.19;60.37;100011.28;1681260;85;21524;-71
2022/08/14 07:12:40;;;;;;;8.30;6.47;;;;;;;24.25;60.28;99997.48;1689027;85;21545;-72
2022/08/14 07:15:12;;;;;;;14.23;7.05;;;;;;;24.29;59.37;100001.96;1686848;84;21086;-73
2022/08/14 07:17:50;;;;;;;9.95;7.00;;;;;;;24.27;59.37;100005.06;1690256;84;21507;-72
2022/08/14 07:20:21;;;;;;;14.53;6.95;;;;;;;24.30;59.50;100007.83;1685511;85;21482;-72
2022/08/14 07:22:55;;;;;;;8.58;6.60;;;;;;;24.31;58.85;100003.89;1684777;83;21107;-73
2022/08/14 07:25:24;;;;;;;11.05;6.87;;;;;;;24.40;59.32;99997.06;1691930;84;21007;-73
2022/08/14 07:27:56;;;;;;;9.55;7.22;;;;;;;24.62;59.39;100000.97;1677971;85;21083;-71
2022/08/14 07:30:27;;;;;;;9.35;6.78;;;;;;;24.96;58.33;99995.20;1687170;84;21062;-73
2022/08/14 07:32:58;;;;;;;10.98;6.97;;;;;;;25.47;57.46;99991.64;1694018;84;21610;-72
2022/08/14 07:35:28;;;;;;;7.42;6.70;;;;;;;25.98;55.87;99987.11;1688956;84;21063;-73
2022/08/14 07:37:59;;;;;;;15.48;6.95;;;;;;;26.59;54.49;99985.34;1688381;84;21063;-74
2022/08/14 07:40:28;;;;;;;8.83;6.97;;;;;;;27.09;53.37;99984.81;1689106;84;21083;-75
2022/08/14 07:42:58;;;;;;;9.98;6.97;;;;;;;27.63;52.41;99983.53;1689079;85;21047;-71
2022/08/14 07:45:30;;;;;;;16.37;11.18;;;;;;;28.06;50.77;99991.67;1685116;84;21051;-69
2022/08/14 07:48:00;;;;;;;7.95;6.95;;;;;;;28.44;49.19;99986.13;1678848;84;21116;-69
2022/08/14 07:50:30;;;;;;;8.55;7.05;;;;;;;28.73;49.17;99996.27;1687144;84;21062;-69
2022/08/14 07:53:02;;;;;;;10.10;6.97;;;;;;;29.22;47.61;99996.43;1687331;84;21259;-68
2022/08/14 07:55:32;;;;;;;9.13;6.53;;;;;;;29.40;45.76;99989.40;1676584;85;21103;-70
2022/08/14 07:58:03;;;;;;;9.25;6.58;;;;;;;29.29;45.74;99988.33;1682491;85;21083;-68
2022/08/14 08:00:34;;;;;;;12.58;7.08;;;;;;;29.19;46.01;99996.27;1680615;84;21210;-72
2022/08/14 08:03:10;;;;;;;13.68;7.35;;;;;;;29.26;45.44;99985.31;1688927;84;21273;-73
2022/08/14 08:05:41;;;;;;;8.68;7.00;;;;;;;29.09;45.85;99990.38;1683793;85;21023;-71
2022/08/14 08:08:11;;;;;;;10.30;6.75;;;;;;;28.91;46.53;99990.11;1668987;85;21076;-68
2022/08/14 08:10:43;;;;;;;10.70;6.95;;;;;;;28.88;47.25;99982.30;1651021;86;21505;-71
2022/08/14 08:13:17;;;;;;;11.30;7.12;;;;;;;28.88;46.73;99985.13;1737510;82;21074;-72
2022/08/14 08:15:55;;;;;;;10.70;7.00;;;;;;;28.78;47.40;99975.55;1686160;84;21645;-72
2022/08/14 08:18:25;;;;;;;11.30;6.90;;;;;;;28.82;47.84;99973.72;1682055;84;21082;-71
2022/08/14 08:20:56;;;;;;;8.90;7.05;;;;;;;29.03;46.92;99973.36;1675170;84;21311;-72
2022/08/14 08:23:28;;;;;;;9.90;6.37;;;;;;;29.35;46.35;99973.46;1667606;84;21099;-74
2022/08/14 08:25:59;;;;;;;8.68;6.17;;;;;;;29.72;45.16;99970.52;1675670;84;21007;-74
2022/08/14 08:28:30;;;;;;;8.68;6.28;;;;;;;29.99;43.75;99976.37;1687686;84;21584;-73
2022/08/14 08:31:04;;;;;;;7.12;6.42;;;;;;;30.10;43.80;99975.45;1688696;84;21023;-73
2022/08/14 08:33:38;;;;;;;8.65;6.28;;;;;;;30.36;43.48;99974.74;1687858;84;22007;-73
2022/08/14 08:36:10;;;;;;;7.72;5.83;;;;;;;30.64;42.71;99977.14;1684427;84;21464;-72
2022/08/14 08:38:41;;;;;;;14.23;6.28;;;;;;;30.90;41.89;99969.30;1683104;85;21064;-72
2022/08/14 08:41:11;;;;;;;10.65;6.40;;;;;;;30.94;41.74;99985.84;1677608;84;21590;-73
2022/08/14 08:43:40;;;;;;;9.10;6.20;;;;;;;31.05;41.46;99977.18;1688970;84;21090;-73
2022/08/14 08:46:14;;;;;;;9.05;5.97;;;;;;;31.13;41.14;99972.63;1684240;84;21063;-74
2022/08/14 08:48:51;;;;;;;10.72;6.25;;;;;;;31.16;41.17;99969.95;1679290;84;21054;-74
2022/08/14 08:51:27;;;;;;;10.65;6.47;;;;;;;31.06;40.68;99971.77;1689113;84;21086;-73
2022/08/14 08:54:11;;;;;;;11.73;6.12;;;;;;;30.87;41.10;99958.68;1689012;84;21055;-73
2022/08/14 08:56:44;;;;;;;8.43;6.50;;;;;;;30.78;41.74;99964.98;1685872;84;21110;-73
2022/08/14 08:59:31;;;;;;;7.75;6.50;;;;;;;30.84;41.17;99966.44;1690432;84;21094;-71
2022/08/14 09:02:07;;;;;;;10.25;6.50;;;;;;;30.82;41.49;99958.30;1658308;85;21074;-71
2022/08/14 09:04:40;;;;;;;;;;;;;;;30.83;41.41;99953.47;1691465;84;21470;-75
2022/08/14 09:07:13;;;;;;;6.97;6.08;;;;;;;30.85;41.59;99953.37;1683773;84;20274;-72
2022/08/14 09:09:50;;;;;;;10.13;6.42;;;;;;;30.78;41.56;99954.50;1688228;84;21070;-73
2022/08/14 09:12:21;;;;;;;8.15;6.60;;;;;;;30.65;41.77;99956.17;1688229;84;21106;-72
2022/08/14 09:14:52;;;;;;;9.48;6.53;;;;;;;30.42;42.20;99952.17;1693174;84;21046;-72
2022/08/14 09:17:21;;;;;;;10.58;6.00;;;;;;;30.15;42.70;99943.59;1690793;85;21039;-74
2022/08/14 09:19:52;;;;;;;13.05;6.75;;;;;;;29.89;43.42;99943.63;1690622;85;21062;-73
2022/08/14 09:22:22;;;;;;;13.35;6.97;;;;;;;29.79;43.62;99946.83;1681883;84;21015;-72
2022/08/14 09:24:54;;;;;;;7.60;6.35;;;;;;;29.68;43.86;99939.88;1692853;84;21039;-70
2022/08/14 09:27:23;;;;;;;9.48;6.17;;;;;;;29.49;44.44;99927.55;1690738;85;21189;-71
2022/08/14 09:29:51;;;;;;;9.85;6.42;;;;;;;29.34;44.66;99937.34;1690797;84;21440;-72
2022/08/14 09:32:26;;;;;;;13.28;6.60;;;;;;;29.17;45.02;99930.28;1690755;85;21174;-70
2022/08/14 09:35:20;;;;;;;11.08;6.50;;;;;;;29.07;45.20;99941.08;1692476;84;21106;-70
2022/08/14 09:38:26;;;;;;;7.55;6.50;;;;;;;28.97;45.49;99932.37;1670734;85;21119;-70
2022/08/14 09:41:17;;;;;;;7.25;5.90;;;;;;;28.98;46.34;99931.20;1675833;85;21496;-70
2022/08/14 09:44:00;;;;;;;8.93;5.92;;;;;;;29.04;45.35;99937.76;1690773;85;21463;-70
2022/08/14 09:46:33;;;;;;;10.30;6.25;;;;;;;29.01;45.28;99936.19;1691132;84;21471;-70
2022/08/14 09:49:06;;;;;;;9.98;6.80;;;;;;;28.93;45.79;99937.02;1687196;84;21076;-68
2022/08/14 09:51:38;;;;;;;10.45;6.92;;;;;;;28.91;45.59;99930.88;1692531;84;21010;-70
2022/08/14 09:54:11;;;;;;;8.48;6.17;;;;;;;28.85;46.31;99938.67;1690387;85;21110;-71
2022/08/14 09:56:47;;;;;;;8.25;5.85;;;;;;;28.78;45.87;99935.48;1690965;84;21118;-71
2022/08/14 09:59:22;;;;;;;8.13;6.35;;;;;;;28.70;45.59;99930.08;1689580;85;21098;-71
2022/08/14 10:01:50;;;;;;;10.90;6.35;;;;;;;28.63;45.91;99942.44;1692801;84;21110;-71
2022/08/14 10:04:23;;;;;;;11.80;6.33;;;;;;;28.52;46.39;99937.41;1693883;84;21030;-71
2022/08/14 10:06:54;;;;;;;9.80;6.00;;;;;;;28.47;46.50;99934.73;1693252;84;21181;-73
2022/08/14 10:09:26;;;;;;;8.25;6.12;;;;;;;28.39;46.75;99951.88;1692020;84;21060;-72
2022/08/14 10:11:58;;;;;;;10.30;5.90;;;;;;;28.37;46.38;99940.11;1693228;84;21047;-71
2022/08/14 10:14:31;;;;;;;10.35;5.85;;;;;;;28.37;45.90;99953.63;1693965;84;21051;-71
2022/08/14 10:17:03;;;;;;;8.35;5.87;;;;;;;28.32;45.50;99952.94;1672999;85;21031;-71
2022/08/14 10:19:34;;;;;;;7.42;5.35;;;;;;;28.20;45.92;99952.12;1690770;84;21507;-73
2022/08/14 10:22:07;;;;;;;10.30;5.62;;;;;;;28.13;45.91;99950.94;1693839;84;21039;-71
2022/08/14 10:24:45;;;;;;;10.60;5.85;;;;;;;28.04;46.12;99950.33;1690548;84;21508;-71
2022/08/14 10:27:22;;;;;;;12.15;6.25;;;;;;;28.01;46.13;99945.34;1693657;84;21035;-71
2022/08/14 10:29:59;;;;;;;13.13;6.83;;;;;;;28.03;46.43;99940.80;1694051;84;21011;-72
2022/08/14 10:32:28;;;;;;;8.53;6.20;;;;;;;28.09;46.23;99941.73;1693924;84;21047;-73
2022/08/14 10:35:07;;;;;;;8.15;5.80;;;;;;;28.15;45.80;99939.59;1693094;84;21070;-71
2022/08/14 10:37:43;;;;;;;8.08;5.97;;;;;;;28.17;45.70;99938.69;1691443;84;21582;-70
2022/08/14 10:40:29;;;;;;;8.68;5.83;;;;;;;28.19;45.63;99949.63;1694124;84;21086;-71
2022/08/14 10:43:01;;;;;;;6.78;5.28;;;;;;;28.20;45.32;99942.27;1690090;84;21046;-67
2022/08/14 10:45:33;;;;;;;7.50;5.60;;;;;;;28.24;45.66;99948.94;1695720;84;21471;-70
2022/08/14 10:48:10;;;;;;;12.88;6.45;;;;;;;28.31;46.02;99949.88;1689002;85;21090;-71
2022/08/14 10:50:44;;;;;;;11.08;6.05;;;;;;;28.36;45.76;99945.49;1693504;84;21479;-69
2022/08/14 10:53:14;;;;;;;10.70;5.90;;;;;;;28.35;46.32;99938.20;1634650;87;21118;-67
2022/08/14 10:55:43;;;;;;;9.50;5.92;;;;;;;28.35;46.32;99938.20;1627965;87;21086;-69
2022/08/14 10:58:15;;;;;;;8.23;5.58;;;;;;;28.38;46.23;99937.54;1650253;85;21047;-69
2022/08/14 11:00:55;;;;;;;9.45;5.95;;;;;;;28.40;45.95;99936.05;1690614;85;21504;-69
2022/08/14 11:03:27;;;;;;;9.73;5.80;;;;;;;28.43;45.73;99933.73;1692718;84;21540;-69
2022/08/14 11:06:00;;;;;;;9.75;5.35;;;;;;;28.40;44.34;99938.88;1694305;84;21102;-71
2022/08/14 11:08:32;;;;;;;10.72;5.92;;;;;;;28.40;44.34;99938.88;1692867;84;21031;-71
2022/08/14 11:11:04;;;;;;;6.80;5.70;;;;;;;28.35;44.50;99932.56;1691249;84;21034;-71
2022/08/14 11:13:37;;;;;;;9.43;5.90;;;;;;;28.31;44.88;99925.92;1693131;84;21479;-69
2022/08/14 11:16:06;;;;;;;10.80;6.12;;;;;;;28.32;45.35;99928.98;1694312;84;21483;-71
2022/08/14 11:18:36;;;;;;;8.25;5.97;;;;;;;28.37;45.43;99926.02;1693969;84;21051;-72
2022/08/14 11:21:07;;;;;;;9.35;5.83;;;;;;;28.41;45.67;99917.16;1690732;84;21070;-65
2022/08/14 11:23:38;;;;;;;9.65;5.70;;;;;;;28.45;45.89;99921.56;1690681;85;21034;-68
2022/08/14 11:26:10;;;;;;;7.33;5.78;;;;;;;28.46;45.72;99932.50;1690457;84;21514;-70
2022/08/14 11:28:45;;;;;;;10.75;5.90;;;;;;;28.47;45.60;99927.69;1693987;84;21070;-68
2022/08/14 11:31:28;;;;;;;7.78;5.70;;;;;;;28.37;45.91;99928.84;1690659;85;21080;-68
2022/08/14 11:33:56;;;;;;;10.15;6.08;;;;;;;28.37;45.91;99928.84;1693574;84;21075;-70
2022/08/14 11:36:27;;;;;;;6.42;5.60;;;;;;;28.33;45.92;99935.70;1676219;84;22009;-72
2022/08/14 11:38:57;;;;;;;21.02;6.40;;;;;;;28.29;45.94;99922.59;1677352;84;21115;-70
2022/08/14 11:41:27;;;;;;;9.20;6.35;;;;;;;28.30;46.42;99922.27;1677559;84;21082;-66
2022/08/14 11:43:56;;;;;;;9.65;5.85;;;;;;;28.35;46.56;99928.33;1696695;84;21106;-72
2022/08/14 11:46:27;;;;;;;11.53;5.95;;;;;;;28.41;46.76;99919.39;1693639;84;21050;-71
2022/08/14 11:48:59;;;;;;;7.50;5.55;;;;;;;28.50;46.03;99928.45;1685995;85;21549;-72
2022/08/14 11:51:29;;;;;;;11.03;5.87;;;;;;;28.50;46.03;99928.45;1673923;84;21106;-72
2022/08/14 11:54:02;;;;;;;9.50;5.60;;;;;;;28.57;45.98;99935.84;1693645;84;21067;-71
2022/08/14 11:56:35;;;;;;;8.48;5.72;;;;;;;28.54;45.87;99928.88;1685981;84;21094;-71
2022/08/14 11:59:06;;;;;;;6.50;5.58;;;;;;;28.52;46.35;99931.77;1691025;84;21285;-71
2022/08/14 12:01:37;;;;;;;8.38;5.62;;;;;;;28.49;46.23;99940.30;1690842;84;21067;-71
2022/08/14 12:04:13;;;;;;;6.53;5.10;;;;;;;28.45;46.62;99922.38;1684180;85;21008;-71